Time;durP1;ratioP1;P1;durP2;ratioP2;P2;SDS_P1;SDS_P2;PMS_P1;PMS_P2;Temp;Humidity;BMP_temperature;BMP_pressure;BME280_temperature;BME280_humidity;BME280_pressure;Samples;Min_cycle;Max_cycle;Signal;HPM_P1;HPM_P2
2022/01/20 00:01:19;;;;;;;116.15;53.60;;;;;;;-1.65;100.00;98412.56;5054634;28;20033;-77
2022/01/20 00:03:44;;;;;;;120.78;54.47;;;;;;;-1.61;100.00;98421.84;5052177;28;20021;-77
2022/01/20 00:27:31;;;;;;;120.15;53.97;;;;;;;-1.60;100.00;98410.09;5033450;28;20072;-76
2022/01/20 00:32:33;;;;;;;116.93;56.00;;;;;;;-1.58;100.00;98404.53;5049982;28;20107;-79
2022/01/20 00:37:27;;;;;;;124.30;53.08;;;;;;;-1.41;100.00;98403.88;5052979;28;20025;-74
2022/01/20 00:39:53;;;;;;;112.85;53.25;;;;;;;-1.31;100.00;98409.66;5047579;28;20164;-76
2022/01/20 00:42:20;;;;;;;114.95;51.63;;;;;;;-1.24;100.00;98399.75;5049534;28;20029;-75
2022/01/20 00:44:46;;;;;;;116.30;54.78;;;;;;;-1.17;100.00;98389.81;5051882;28;20024;-77
2022/01/20 00:47:13;;;;;;;103.57;52.42;;;;;;;-1.17;100.00;98383.63;5052286;28;20040;-75
2022/01/20 00:49:39;;;;;;;98.97;47.72;;;;;;;-1.12;100.00;98381.97;5055595;28;20155;-77
2022/01/20 00:52:06;;;;;;;101.93;47.25;;;;;;;-1.07;100.00;98374.09;5052407;28;20500;-75
2022/01/20 00:54:32;;;;;;;108.45;51.42;;;;;;;-1.11;100.00;98362.16;5051824;28;20020;-78
2022/01/20 00:56:57;;;;;;;100.70;47.47;;;;;;;-0.99;100.00;98369.53;5049995;28;20512;-75
2022/01/20 00:59:23;;;;;;;106.45;46.70;;;;;;;-0.96;100.00;98367.25;5049238;28;20041;-75
2022/01/20 01:01:50;;;;;;;95.68;46.95;;;;;;;-0.99;100.00;98369.53;5047155;28;20032;-75
2022/01/20 01:04:15;;;;;;;93.35;47.10;;;;;;;-0.99;100.00;98364.16;5050348;28;20398;-76
2022/01/20 01:09:25;;;;;;;116.55;50.83;;;;;;;-1.01;100.00;98372.44;5050960;28;20505;-77
2022/01/20 01:11:53;;;;;;;102.53;46.88;;;;;;;-0.98;100.00;98365.81;5049846;28;20029;-76
2022/01/20 01:14:21;;;;;;;100.20;45.53;;;;;;;-0.92;100.00;98375.72;5050914;28;20033;-75
2022/01/20 01:24:38;;;;;;;86.03;41.55;;;;;;;-0.92;100.00;98375.72;5049599;28;20029;-76
2022/01/20 01:27:05;;;;;;;90.97;46.28;;;;;;;-1.00;100.00;98375.97;5048397;28;20526;-75
2022/01/20 01:32:08;;;;;;;84.65;41.50;;;;;;;-0.97;100.00;98372.84;5050110;28;20102;-74
2022/01/20 01:34:36;;;;;;;86.93;41.88;;;;;;;-0.99;100.00;98366.84;5048887;28;20029;-76
2022/01/20 01:39:27;;;;;;;74.07;39.40;;;;;;;-0.87;100.00;98365.97;5050622;28;20017;-74
2022/01/20 01:41:54;;;;;;;80.68;40.55;;;;;;;-0.80;100.00;98363.28;5051561;28;20055;-74
2022/01/20 01:44:27;;;;;;;82.25;40.45;;;;;;;-0.87;100.00;98359.78;5051076;28;20029;-74
2022/01/20 01:46:53;;;;;;;83.05;40.28;;;;;;;-0.81;100.00;98364.31;5051059;28;20489;-75
2022/01/20 01:49:20;;;;;;;74.28;36.33;;;;;;;-0.81;100.00;98356.25;5051932;28;20040;-76
2022/01/20 01:51:45;;;;;;;74.20;35.90;;;;;;;-0.79;100.00;98354.19;5053578;28;20532;-76
2022/01/20 01:54:12;;;;;;;74.03;38.80;;;;;;;-0.77;100.00;98352.94;5051575;28;20053;-75
2022/01/20 01:56:38;;;;;;;75.80;35.42;;;;;;;-0.76;100.00;98359.13;5052327;28;20111;-75
2022/01/20 01:59:05;;;;;;;70.53;34.38;;;;;;;-0.74;100.00;98340.94;5050152;28;20035;-75
2022/01/20 02:01:33;;;;;;;71.00;35.15;;;;;;;-0.83;100.00;98329.63;5051469;28;20067;-76
2022/01/20 02:04:09;;;;;;;70.25;35.83;;;;;;;-0.72;100.00;98341.56;5050050;28;20037;-75
2022/01/20 02:19:55;;;;;;;68.38;30.85;;;;;;;-0.75;100.00;98307.88;5051151;28;20039;-74
2022/01/20 02:22:21;;;;;;;67.63;33.13;;;;;;;-0.83;100.00;98300.09;5051160;28;20049;-75
2022/01/20 02:24:46;;;;;;;65.03;31.13;;;;;;;-0.83;100.00;98291.22;5051232;28;20489;-77
2022/01/20 02:27:11;;;;;;;59.33;30.20;;;;;;;-0.74;100.00;98285.38;5051535;28;20028;-75
2022/01/20 02:29:37;;;;;;;61.00;29.25;;;;;;;-0.74;100.00;98277.31;5050199;28;20029;-76
2022/01/20 02:32:03;;;;;;;62.67;30.05;;;;;;;-0.68;100.00;98275.63;5051576;28;20052;-77
2022/01/20 02:34:30;;;;;;;63.03;31.67;;;;;;;-0.65;100.00;98269.81;5051734;28;20036;-75
2022/01/20 02:36:58;;;;;;;65.22;31.58;;;;;;;-0.70;100.00;98256.25;5050804;28;20082;-77
2022/01/20 02:44:51;;;;;;;61.70;31.30;;;;;;;-0.75;100.00;98254.19;5049696;28;20031;-77
2022/01/20 02:47:18;;;;;;;57.33;30.52;;;;;;;-0.71;100.00;98260.78;5055470;28;20378;-76
2022/01/20 02:49:45;;;;;;;58.13;29.27;;;;;;;-0.78;100.00;98246.56;5054682;28;20029;-78
2022/01/20 02:52:11;;;;;;;59.40;30.08;;;;;;;-0.78;100.00;98243.06;5050937;28;20031;-77
2022/01/20 02:54:37;;;;;;;58.38;31.58;;;;;;;-0.84;100.00;98243.91;5050559;28;20029;-77
2022/01/20 02:57:04;;;;;;;58.17;29.98;;;;;;;-0.90;100.00;98240.25;5048771;28;20041;-77
2022/01/20 02:59:30;;;;;;;63.17;31.88;;;;;;;-0.81;100.00;98248.84;5049038;28;20449;-77
2022/01/20 03:01:56;;;;;;;61.10;30.13;;;;;;;-0.74;100.00;98249.66;5049134;28;20021;-77
2022/01/20 03:04:26;;;;;;;63.00;31.15;;;;;;;-0.83;100.00;98246.41;5050135;28;20174;-78
2022/01/20 03:06:51;;;;;;;58.15;30.20;;;;;;;-0.81;100.00;98241.63;5050252;28;20068;-75
2022/01/20 03:09:17;;;;;;;56.92;29.92;;;;;;;-0.89;100.00;98239.22;5050207;28;20505;-76
2022/01/20 03:11:42;;;;;;;59.28;29.50;;;;;;;-0.85;100.00;98236.94;5050076;28;20028;-75
2022/01/20 03:14:08;;;;;;;58.83;29.38;;;;;;;-0.84;100.00;98233.19;5043544;28;20820;-77
2022/01/20 03:16:33;;;;;;;63.75;30.30;;;;;;;-0.95;100.00;98225.81;5038912;28;20022;-75
2022/01/20 03:18:58;;;;;;;58.30;30.75;;;;;;;-1.07;100.00;98225.69;5030700;28;20033;-75
2022/01/20 03:21:24;;;;;;;59.65;30.23;;;;;;;-1.09;100.00;98223.22;5048163;28;20474;-75
2022/01/20 03:23:49;;;;;;;52.15;27.67;;;;;;;-0.99;100.00;98224.59;5050107;28;20025;-76
2022/01/20 03:26:15;;;;;;;60.92;31.70;;;;;;;-1.08;100.00;98227.53;5050086;28;20385;-75
2022/01/20 03:28:41;;;;;;;56.80;29.35;;;;;;;-1.14;100.00;98224.91;5049894;28;20040;-75
2022/01/20 03:31:06;;;;;;;52.35;27.40;;;;;;;-1.24;100.00;98211.94;5049641;28;20029;-76
2022/01/20 03:33:32;;;;;;;56.05;28.38;;;;;;;-1.31;100.00;98213.00;5049443;28;20028;-76
2022/01/20 03:35:57;;;;;;;64.03;30.73;;;;;;;-1.34;100.00;98218.78;5049705;28;20610;-75
2022/01/20 03:38:22;;;;;;;60.75;31.55;;;;;;;-1.34;100.00;98200.00;5048290;28;20044;-75
2022/01/20 03:40:49;;;;;;;63.08;31.15;;;;;;;-1.29;100.00;98209.09;5049657;28;20434;-75
2022/01/20 03:43:15;;;;;;;64.00;31.02;;;;;;;-1.33;100.00;98207.84;5051452;28;20021;-75
2022/01/20 03:45:42;;;;;;;65.13;31.88;;;;;;;-1.31;100.00;98221.88;5048343;28;20036;-74
2022/01/20 03:48:10;;;;;;;64.07;31.05;;;;;;;-1.28;100.00;98229.50;5049827;28;20079;-77
2022/01/20 03:53:22;;;;;;;57.00;29.00;;;;;;;-1.25;100.00;98225.56;5049752;28;20091;-75
2022/01/20 03:55:47;;;;;;;61.13;29.95;;;;;;;-1.20;100.00;98242.69;5049879;28;20041;-77
2022/01/20 03:58:14;;;;;;;55.85;28.13;;;;;;;-1.08;100.00;98240.97;5047910;28;20044;-74
2022/01/20 04:00:40;;;;;;;51.15;27.85;;;;;;;-0.96;100.00;98251.00;5048952;28;20032;-76
2022/01/20 04:03:05;;;;;;;55.25;26.60;;;;;;;-0.84;100.00;98251.97;5049256;28;20029;-79
2022/01/20 04:05:31;;;;;;;49.20;27.33;;;;;;;-0.73;100.00;98252.13;5048171;28;20021;-77
2022/01/20 04:07:56;;;;;;;65.15;28.02;;;;;;;-0.69;100.00;98247.94;5049499;28;20029;-76
2022/01/20 04:10:22;;;;;;;52.40;27.25;;;;;;;-0.61;100.00;98246.88;5048206;28;20094;-75
2022/01/20 04:12:47;;;;;;;52.08;26.40;;;;;;;-0.57;100.00;98240.88;5048180;28;20071;-77
2022/01/20 04:15:15;;;;;;;51.22;26.65;;;;;;;-0.51;100.00;98249.91;5049067;28;20029;-80
2022/01/20 04:17:43;;;;;;;53.33;25.48;;;;;;;-0.47;100.00;98243.03;5049283;28;20080;-78
2022/01/20 04:20:09;;;;;;;53.10;26.92;;;;;;;-0.45;100.00;98235.59;5048824;28;20112;-76
2022/01/20 04:22:36;;;;;;;51.17;25.75;;;;;;;-0.47;100.00;98236.88;5055761;28;20060;-79
2022/01/20 04:25:01;;;;;;;56.47;28.20;;;;;;;-0.39;100.00;98232.06;5053009;28;20371;-76
2022/01/20 04:27:27;;;;;;;53.83;26.42;;;;;;;-0.35;100.00;98232.44;5050145;28;20021;-77
2022/01/20 04:29:52;;;;;;;50.63;25.50;;;;;;;-0.39;100.00;98232.06;5049492;28;20037;-76
2022/01/20 04:32:18;;;;;;;46.13;25.25;;;;;;;-0.48;100.00;98237.91;5048713;28;20055;-75
2022/01/20 04:34:44;;;;;;;54.25;25.60;;;;;;;-0.44;100.00;98245.31;5032480;28;20470;-76
2022/01/20 04:37:10;;;;;;;48.05;24.05;;;;;;;-0.34;100.00;98245.63;5050764;28;20055;-76
2022/01/20 04:39:42;;;;;;;52.40;25.95;;;;;;;-0.30;100.00;98240.66;5051815;28;20064;-76
2022/01/20 04:42:08;;;;;;;49.80;26.10;;;;;;;-0.40;100.00;98243.00;5052068;28;20071;-75
2022/01/20 04:44:49;;;;;;;51.70;25.13;;;;;;;-0.30;100.00;98254.91;5050717;28;20041;-77
2022/01/20 04:57:52;;;;;;;41.05;21.33;;;;;;;-0.14;100.00;98240.94;5032603;28;20513;-78
2022/01/20 05:00:17;;;;;;;44.03;20.88;;;;;;;-0.15;100.00;98254.56;5032564;28;20022;-76
2022/01/20 05:02:43;;;;;;;42.15;21.70;;;;;;;-0.18;100.00;98239.72;5032576;28;20540;-76
2022/01/20 05:05:09;;;;;;;39.10;18.50;;;;;;;-0.29;100.00;98237.75;5051016;28;20024;-74
2022/01/20 05:07:35;;;;;;;37.00;18.10;;;;;;;-0.35;100.00;98233.25;5050643;28;20040;-76
2022/01/20 05:10:00;;;;;;;39.28;19.92;;;;;;;-0.36;100.00;98250.41;5035622;28;20034;-75
2022/01/20 05:12:37;;;;;;;35.65;18.55;;;;;;;-0.36;100.00;98245.03;5032556;28;20026;-76
2022/01/20 05:15:03;;;;;;;34.15;17.15;;;;;;;-0.43;100.00;98235.38;5032456;28;20418;-79
2022/01/20 05:17:28;;;;;;;34.13;18.33;;;;;;;-0.27;100.00;98249.09;5064358;28;20032;-75
2022/01/20 05:19:54;;;;;;;33.88;19.95;;;;;;;-0.35;100.00;98246.69;5050440;28;20043;-78
2022/01/20 05:22:19;;;;;;;37.28;19.10;;;;;;;-0.39;100.00;98256.22;5051874;28;20040;-76
2022/01/20 05:24:45;;;;;;;37.70;20.27;;;;;;;-0.44;100.00;98280.25;5050608;28;20148;-77
2022/01/20 05:27:10;;;;;;;38.30;19.60;;;;;;;-0.47;100.00;98274.47;5052381;28;20107;-77
2022/01/20 05:29:35;;;;;;;43.00;20.30;;;;;;;-0.55;100.00;98273.69;5052009;28;20482;-76
2022/01/20 05:32:01;;;;;;;36.55;18.98;;;;;;;-0.47;100.00;98272.59;5051953;28;20552;-75
2022/01/20 05:34:26;;;;;;;42.47;20.73;;;;;;;-0.61;100.00;98273.75;5052862;28;20071;-75
2022/01/20 05:36:52;;;;;;;43.47;21.77;;;;;;;-0.65;100.00;98270.66;5050853;28;20494;-76
2022/01/20 05:39:17;;;;;;;43.17;22.98;;;;;;;-0.82;100.00;98274.06;5052022;28;20045;-75
2022/01/20 05:41:44;;;;;;;46.50;23.40;;;;;;;-0.96;100.00;98275.16;5052395;28;20025;-75
2022/01/20 05:44:09;;;;;;;42.88;23.40;;;;;;;-0.88;100.00;98274.94;5051958;28;20029;-79
2022/01/20 05:46:40;;;;;;;48.92;23.95;;;;;;;-0.87;100.00;98276.56;5051511;28;20033;-75
2022/01/20 05:49:09;;;;;;;50.65;24.48;;;;;;;-0.83;100.00;98267.88;5050432;28;20500;-75
2022/01/20 05:51:36;;;;;;;42.20;24.63;;;;;;;-0.84;100.00;98276.13;5035649;28;20025;-75
2022/01/20 05:54:02;;;;;;;47.45;23.65;;;;;;;-0.79;100.00;98273.66;5052652;28;20057;-77
2022/01/20 05:56:28;;;;;;;41.90;21.77;;;;;;;-0.76;100.00;98290.16;5049647;28;20383;-75
2022/01/20 05:58:53;;;;;;;45.38;23.48;;;;;;;-0.66;100.00;98284.31;5033837;28;20063;-76
2022/01/20 06:01:19;;;;;;;45.45;23.60;;;;;;;-0.71;100.00;98273.38;5049608;28;20486;-77
2022/01/20 06:03:44;;;;;;;49.85;26.00;;;;;;;-0.66;100.00;98279.75;5049910;28;20493;-76
2022/01/20 06:06:12;;;;;;;49.85;26.80;;;;;;;-0.49;100.00;98292.66;5051190;28;20036;-75
2022/01/20 06:08:39;;;;;;;47.97;24.52;;;;;;;-0.46;100.00;98290.38;5050205;28;20056;-74
2022/01/20 06:11:05;;;;;;;47.63;24.85;;;;;;;-0.44;100.00;98282.94;5050945;28;20032;-75
2022/01/20 06:13:31;;;;;;;43.47;21.38;;;;;;;-0.37;100.00;98289.06;5051322;28;20025;-75
2022/01/20 06:15:57;;;;;;;56.53;28.30;;;;;;;-0.50;100.00;98273.03;5050913;28;20036;-75
2022/01/20 06:18:23;;;;;;;54.80;26.23;;;;;;;-0.49;100.00;98282.75;5051033;28;20025;-76
2022/01/20 06:20:49;;;;;;;51.03;22.27;;;;;;;-0.56;100.00;98279.28;5050790;28;20059;-76
2022/01/20 06:23:15;;;;;;;40.85;21.95;;;;;;;-0.52;100.00;98280.50;5050872;28;20037;-75
2022/01/20 06:25:43;;;;;;;45.42;22.58;;;;;;;-0.39;100.00;98285.78;5053305;28;20067;-80
2022/01/20 06:28:09;;;;;;;40.83;20.45;;;;;;;-0.25;100.00;98281.94;5053602;28;20024;-80
2022/01/20 06:30:36;;;;;;;38.65;19.85;;;;;;;-0.15;100.00;98289.50;5053853;28;20501;-82
2022/01/20 06:33:02;;;;;;;33.70;17.67;;;;;;;-0.13;100.00;98298.19;5053054;28;20020;-82
2022/01/20 06:35:28;;;;;;;33.40;16.77;;;;;;;-0.28;100.00;98293.13;5056264;28;20028;-83
2022/01/20 06:37:54;;;;;;;34.60;19.58;;;;;;;-0.30;100.00;98294.38;5057017;28;20231;-79
2022/01/20 06:40:19;;;;;;;36.58;17.25;;;;;;;-0.28;100.00;98300.38;5051281;28;20386;-83
2022/01/20 06:42:45;;;;;;;30.10;15.95;;;;;;;-0.27;100.00;98305.53;5053855;28;20032;-82
2022/01/20 06:45:13;;;;;;;33.70;17.27;;;;;;;-0.31;100.00;98304.31;5057003;28;20636;-76
2022/01/20 06:47:39;;;;;;;33.22;18.33;;;;;;;-0.33;100.00;98301.03;5051869;28;20056;-74
2022/01/20 06:50:06;;;;;;;34.58;17.30;;;;;;;-0.38;100.00;98305.41;5052098;28;20029;-77
2022/01/20 06:52:38;;;;;;;33.55;17.63;;;;;;;-0.32;100.00;98296.47;5048043;28;20053;-74
2022/01/20 06:55:07;;;;;;;29.90;16.27;;;;;;;-0.23;100.00;98290.63;5034873;28;20037;-79
2022/01/20 06:57:34;;;;;;;37.15;17.63;;;;;;;-0.14;100.00;98275.03;5035350;28;20037;-77
2022/01/20 06:59:59;;;;;;;32.20;16.48;;;;;;;-0.06;100.00;98280.97;5032149;28;20032;-74
2022/01/20 07:02:24;;;;;;;37.83;18.70;;;;;;;-0.03;100.00;98274.31;5048021;28;20029;-77
2022/01/20 07:04:51;;;;;;;44.83;19.67;;;;;;;-0.08;100.00;98277.69;5052126;28;20397;-75
2022/01/20 07:07:18;;;;;;;50.00;22.48;;;;;;;-0.01;100.00;98270.41;5056007;28;20035;-75
2022/01/20 07:09:44;;;;;;;38.92;19.45;;;;;;;0.17;100.00;98284.91;5050675;28;20533;-82
2022/01/20 07:12:10;;;;;;;35.20;19.75;;;;;;;0.03;100.00;98286.09;5050798;28;20029;-76
2022/01/20 07:14:37;;;;;;;41.08;21.60;;;;;;;-0.06;100.00;98286.34;5049149;28;20098;-78
2022/01/20 07:17:03;;;;;;;37.40;19.65;;;;;;;-0.05;100.00;98292.53;5050688;28;20052;-76
2022/01/20 07:19:29;;;;;;;38.88;18.48;;;;;;;-0.03;100.00;98293.13;5049757;28;20029;-76
2022/01/20 07:21:54;;;;;;;30.77;16.48;;;;;;;-0.05;100.00;98292.53;5050262;28;20078;-76
2022/01/20 07:24:20;;;;;;;32.28;17.15;;;;;;;-0.05;100.00;98297.91;5051507;28;20033;-76
2022/01/20 07:26:45;;;;;;;43.85;18.20;;;;;;;0.09;100.00;98301.34;5050271;28;20028;-77
2022/01/20 07:29:10;;;;;;;38.50;16.05;;;;;;;0.15;100.00;98305.81;5050447;28;20025;-74
2022/01/20 07:31:36;;;;;;;32.17;16.60;;;;;;;0.16;100.00;98299.41;5050005;28;20079;-76
2022/01/20 07:34:02;;;;;;;31.92;16.17;;;;;;;0.05;100.00;98297.44;5049710;28;20032;-80
2022/01/20 07:36:27;;;;;;;37.20;17.45;;;;;;;0.14;100.00;98285.34;5052434;28;20025;-76
2022/01/20 07:38:53;;;;;;;35.70;17.48;;;;;;;0.14;100.00;98296.09;5048481;28;20041;-73
2022/01/20 07:41:19;;;;;;;33.38;16.17;;;;;;;0.22;100.00;98287.78;5049588;28;20036;-77
2022/01/20 07:43:44;;;;;;;29.73;15.55;;;;;;;0.20;100.00;98290.66;5050208;28;20031;-76
2022/01/20 07:46:10;;;;;;;31.83;16.35;;;;;;;0.26;100.00;98288.97;5049879;28;20115;-75
2022/01/20 07:48:35;;;;;;;31.60;16.55;;;;;;;0.32;100.00;98293.44;5050120;28;20029;-75
2022/01/20 07:51:02;;;;;;;29.60;15.68;;;;;;;0.43;100.00;98307.00;5049672;28;20043;-75
2022/01/20 07:53:27;;;;;;;30.35;16.63;;;;;;;0.51;100.00;98298.63;5039843;28;20029;-75
2022/01/20 07:55:53;;;;;;;37.92;17.60;;;;;;;0.49;100.00;98308.81;5029879;28;20463;-74
2022/01/20 07:58:19;;;;;;;32.28;16.65;;;;;;;0.47;100.00;98302.00;5029987;28;20049;-74
2022/01/20 08:00:44;;;;;;;30.58;16.20;;;;;;;0.51;100.00;98293.25;5029886;28;20060;-77
2022/01/20 08:03:10;;;;;;;44.42;18.20;;;;;;;0.56;100.00;98295.28;5033241;28;20108;-75
2022/01/20 08:05:35;;;;;;;39.00;19.65;;;;;;;0.62;100.00;98297.09;5039558;28;20025;-74
2022/01/20 08:08:00;;;;;;;43.92;20.02;;;;;;;0.67;100.00;98297.22;5048534;28;20061;-76
2022/01/20 08:10:26;;;;;;;40.97;21.35;;;;;;;0.72;100.00;98294.69;5049707;28;20032;-75
2022/01/20 08:12:52;;;;;;;40.05;21.10;;;;;;;0.65;100.00;98288.56;5052281;28;20096;-76
2022/01/20 08:15:18;;;;;;;35.13;18.67;;;;;;;0.65;100.00;98276.97;5050904;28;20024;-74
2022/01/20 08:17:44;;;;;;;38.42;20.95;;;;;;;0.46;100.00;98276.16;5043691;28;20057;-76
2022/01/20 08:20:10;;;;;;;36.63;20.10;;;;;;;0.62;100.00;98278.25;5052539;28;20423;-76
2022/01/20 08:22:36;;;;;;;36.85;20.50;;;;;;;0.53;100.00;98271.53;5049290;28;20036;-75
2022/01/20 08:25:11;;;;;;;38.40;19.70;;;;;;;0.49;100.00;98267.63;5065185;28;20022;-75
2022/01/20 08:27:37;;;;;;;33.97;18.70;;;;;;;0.76;100.00;98266.28;5034467;28;20025;-77
2022/01/20 08:30:05;;;;;;;33.40;18.60;;;;;;;0.73;100.00;98264.03;5050603;28;20627;-75
2022/01/20 08:32:30;;;;;;;38.22;21.13;;;;;;;0.68;100.00;98252.31;5050668;28;20438;-75
2022/01/20 08:34:56;;;;;;;36.67;17.20;;;;;;;0.56;100.00;98254.94;5046749;28;20116;-74
2022/01/20 08:37:21;;;;;;;38.45;21.27;;;;;;;0.69;100.00;98252.06;5047894;28;20061;-76
2022/01/20 08:39:46;;;;;;;40.15;20.10;;;;;;;0.91;100.00;98247.88;5045093;28;20032;-76
2022/01/20 08:42:13;;;;;;;38.72;17.63;;;;;;;1.13;100.00;98264.34;5051428;28;20482;-76
2022/01/20 08:44:39;;;;;;;40.90;20.98;;;;;;;1.07;100.00;98268.78;5053611;28;20021;-75
2022/01/20 08:47:16;;;;;;;47.70;21.38;;;;;;;1.19;100.00;98273.41;5038004;28;20033;-76
2022/01/20 08:49:42;;;;;;;33.70;18.75;;;;;;;1.22;100.00;98268.41;5048937;28;20036;-73
2022/01/20 08:52:08;;;;;;;34.75;18.73;;;;;;;1.10;100.00;98272.09;5051210;28;20116;-75
2022/01/20 08:54:33;;;;;;;36.17;20.63;;;;;;;1.08;100.00;98289.28;5049724;28;20526;-76
2022/01/20 08:56:59;;;;;;;44.53;22.27;;;;;;;1.12;100.00;98294.22;5051405;28;20037;-74
2022/01/20 08:59:26;;;;;;;43.78;21.45;;;;;;;1.18;100.00;98294.13;5050062;28;20033;-76
2022/01/20 09:01:51;;;;;;;47.97;19.38;;;;;;;1.30;100.00;98296.88;5047278;28;20482;-77
2022/01/20 09:04:16;;;;;;;44.55;19.95;;;;;;;1.28;100.00;98289.03;5050767;28;20099;-76
2022/01/20 09:06:42;;;;;;;52.70;19.65;;;;;;;1.33;100.00;98274.88;5050729;28;20063;-77
2022/01/20 09:09:07;;;;;;;54.05;20.13;;;;;;;1.28;100.00;98266.66;5050754;28;20028;-76
2022/01/20 09:11:37;;;;;;;57.25;20.02;;;;;;;1.36;100.00;98253.69;5049297;28;20119;-76
2022/01/20 09:16:49;;;;;;;46.20;21.67;;;;;;;1.55;100.00;98240.97;5051861;28;20075;-75
2022/01/20 09:19:14;;;;;;;43.88;21.83;;;;;;;1.30;100.00;98240.31;5050447;28;20083;-79
2022/01/20 09:21:40;;;;;;;55.28;22.27;;;;;;;1.13;100.00;98231.25;5049837;28;20024;-78
2022/01/20 09:24:06;;;;;;;42.10;22.83;;;;;;;0.84;100.00;98225.59;5052165;28;20039;-74
2022/01/20 09:26:32;;;;;;;58.35;26.65;;;;;;;0.99;100.00;98226.03;5048514;28;20036;-75
2022/01/20 09:28:58;;;;;;;54.28;25.80;;;;;;;1.11;100.00;98239.53;5052333;28;20028;-77
2022/01/20 09:31:26;;;;;;;61.58;24.60;;;;;;;1.11;100.00;98249.47;5051009;28;20033;-76
2022/01/20 09:33:53;;;;;;;56.03;23.30;;;;;;;1.10;100.00;98243.25;5050917;28;20032;-77
2022/01/20 09:36:19;;;;;;;57.88;24.60;;;;;;;1.06;100.00;98242.09;5049283;28;20029;-79
2022/01/20 09:38:45;;;;;;;57.03;26.50;;;;;;;1.10;100.00;98234.38;5044575;28;20025;-74
2022/01/20 09:41:10;;;;;;;51.00;23.33;;;;;;;1.19;100.00;98231.13;5047342;28;20025;-76
2022/01/20 09:43:36;;;;;;;56.63;25.23;;;;;;;1.22;100.00;98216.41;5041848;28;20116;-76
2022/01/20 09:46:02;;;;;;;59.55;24.73;;;;;;;1.44;100.00;98220.22;5050397;28;20107;-74
2022/01/20 09:48:29;;;;;;;58.03;27.52;;;;;;;1.60;100.00;98228.44;5050339;28;20078;-77
2022/01/20 09:50:55;;;;;;;48.45;25.95;;;;;;;1.61;100.00;98234.66;5047246;28;20118;-76
2022/01/20 09:53:22;;;;;;;49.35;24.27;;;;;;;1.58;100.00;98240.50;5044331;28;20017;-76
2022/01/20 09:55:48;;;;;;;45.75;23.20;;;;;;;1.56;100.00;98237.22;5045739;28;20033;-75
2022/01/20 09:58:14;;;;;;;48.28;23.42;;;;;;;1.64;100.00;98234.19;5048447;28;20082;-75
2022/01/20 10:00:42;;;;;;;44.58;22.52;;;;;;;1.80;100.00;98246.16;5049272;28;20612;-74
2022/01/20 10:03:13;;;;;;;54.30;24.08;;;;;;;1.92;100.00;98252.41;5049574;28;20021;-76
2022/01/20 10:05:48;;;;;;;48.63;23.98;;;;;;;2.03;100.00;98255.13;5051079;28;20028;-75
2022/01/20 10:08:15;;;;;;;55.50;24.33;;;;;;;2.05;100.00;98250.31;5049536;28;20024;-76
2022/01/20 10:10:43;;;;;;;44.97;23.58;;;;;;;1.97;100.00;98245.25;5054194;28;20112;-75
2022/01/20 10:13:10;;;;;;;42.20;24.55;;;;;;;1.84;100.00;98232.00;5050879;28;20028;-75
2022/01/20 10:15:36;;;;;;;52.25;25.70;;;;;;;1.88;100.00;98229.66;5050727;28;20029;-78
2022/01/20 10:18:14;;;;;;;48.05;25.45;;;;;;;1.69;100.00;98225.41;5050748;28;20082;-79
2022/01/20 10:20:58;;;;;;;53.42;25.80;;;;;;;1.65;100.00;98213.44;5037550;28;20457;-77
2022/01/20 10:23:30;;;;;;;44.85;24.92;;;;;;;1.66;100.00;98202.41;5049008;28;20031;-79
2022/01/20 10:26:24;;;;;;;53.15;27.38;;;;;;;1.70;100.00;98183.91;5049071;28;20393;-79
2022/01/20 10:28:53;;;;;;;46.90;26.27;;;;;;;1.80;100.00;98173.38;5050234;28;20028;-80
2022/01/20 10:31:30;;;;;;;54.95;27.85;;;;;;;1.88;100.00;98170.34;5050027;28;20116;-77
2022/01/20 10:33:55;;;;;;;46.55;26.20;;;;;;;1.85;100.00;98171.63;5049144;28;20025;-78
2022/01/20 10:36:22;;;;;;;48.45;26.25;;;;;;;1.94;100.00;98169.41;5050236;28;20147;-77
2022/01/20 10:38:55;;;;;;;52.75;29.95;;;;;;;1.57;100.00;98160.69;5053770;28;20037;-80
2022/01/20 10:41:28;;;;;;;48.75;29.05;;;;;;;1.65;100.00;98138.81;5054826;28;20052;-80
2022/01/20 10:44:03;;;;;;;49.83;26.75;;;;;;;1.89;100.00;98147.69;5043557;28;20104;-78
2022/01/20 10:46:41;;;;;;;55.90;29.23;;;;;;;1.85;100.00;98149.25;5050437;28;20052;-81
2022/01/20 10:49:06;;;;;;;51.40;27.23;;;;;;;1.94;100.00;98151.31;5039827;28;20034;-80
2022/01/20 10:51:31;;;;;;;46.85;24.23;;;;;;;2.20;100.00;98139.22;5051314;28;20086;-79
2022/01/20 10:54:02;;;;;;;39.53;21.58;;;;;;;2.42;100.00;98145.63;5043722;28;20467;-78
2022/01/20 10:56:28;;;;;;;43.60;23.40;;;;;;;2.81;100.00;98138.59;5050966;28;20620;-77
2022/01/20 10:58:54;;;;;;;42.30;22.27;;;;;;;2.83;100.00;98141.03;5035329;28;20026;-79
2022/01/20 11:01:19;;;;;;;46.17;24.00;;;;;;;2.96;100.00;98132.66;5055626;28;20041;-78
2022/01/20 11:03:45;;;;;;;60.70;28.27;;;;;;;3.22;100.00;98129.34;5051050;28;20041;-76
2022/01/20 11:06:10;;;;;;;56.08;26.20;;;;;;;3.27;100.00;98131.31;5049074;28;20029;-82
2022/01/20 11:08:39;;;;;;;44.78;24.80;;;;;;;3.35;100.00;98123.63;5034801;28;20057;-76
2022/01/20 11:11:04;;;;;;;49.25;23.98;;;;;;;3.57;100.00;98121.81;5047925;28;20426;-79
2022/01/20 11:13:30;;;;;;;42.00;21.92;;;;;;;3.72;100.00;98110.41;5043845;28;20153;-78
2022/01/20 11:15:56;;;;;;;51.85;23.85;;;;;;;3.23;100.00;98093.94;5034136;28;20040;-76
2022/01/20 11:18:29;;;;;;;47.17;22.33;;;;;;;2.93;100.00;98101.53;5039932;28;20384;-78
2022/01/20 11:20:56;;;;;;;51.97;25.35;;;;;;;3.11;100.00;98084.28;5037273;28;20491;-82
2022/01/20 11:23:22;;;;;;;42.42;22.77;;;;;;;4.09;100.00;98092.56;5046117;28;20120;-79
2022/01/20 11:25:48;;;;;;;38.70;20.95;;;;;;;4.40;100.00;98092.94;5041267;28;20482;-81
2022/01/20 11:28:34;;;;;;;40.55;21.50;;;;;;;4.14;100.00;98095.31;5041530;28;20035;-80
2022/01/20 11:31:08;;;;;;;40.45;20.80;;;;;;;3.89;100.00;98084.16;5044222;28;20043;-79
2022/01/20 11:33:43;;;;;;;38.20;21.23;;;;;;;3.86;100.00;98068.41;5041012;28;20028;-78
2022/01/20 11:36:31;;;;;;;43.13;22.57;;;;;;;4.26;100.00;98074.34;5046746;28;20028;-80
2022/01/20 11:39:02;;;;;;;44.28;24.20;;;;;;;4.27;100.00;98076.00;5051030;28;20269;-82
2022/01/20 11:41:34;;;;;;;46.40;23.80;;;;;;;4.52;100.00;98075.50;5044544;28;20040;-79
2022/01/20 11:44:09;;;;;;;41.40;24.58;;;;;;;4.98;100.00;98074.06;5039037;28;20363;-84
2022/01/20 11:46:43;;;;;;;47.80;22.70;;;;;;;5.64;100.00;98067.28;5045528;28;20478;-83
2022/01/20 11:49:11;;;;;;;38.63;21.27;;;;;;;6.24;99.14;98077.72;5047827;28;20040;-83
2022/01/20 11:51:58;;;;;;;38.25;21.85;;;;;;;6.04;100.00;98069.50;5051585;28;20116;-83
2022/01/20 11:54:23;;;;;;;43.00;23.10;;;;;;;5.87;98.18;98071.56;5044600;28;20478;-83
2022/01/20 11:56:48;;;;;;;47.03;23.98;;;;;;;5.66;100.00;98050.78;5046755;28;20052;-82
2022/01/20 11:59:16;;;;;;;45.72;23.85;;;;;;;5.56;100.00;98034.41;5052271;28;20115;-80
2022/01/20 12:01:48;;;;;;;45.65;23.10;;;;;;;4.86;100.00;98032.75;5049871;28;20036;-81
2022/01/20 12:04:15;;;;;;;38.53;21.50;;;;;;;4.79;100.00;98027.53;5048524;28;20030;-78
2022/01/20 12:06:44;;;;;;;37.38;22.13;;;;;;;4.61;100.00;98022.50;5051829;28;20056;-79
2022/01/20 12:09:11;;;;;;;45.00;24.30;;;;;;;4.40;100.00;98006.28;5053797;28;20091;-80
2022/01/20 12:11:44;;;;;;;42.92;21.80;;;;;;;4.19;100.00;98011.50;5052175;28;20032;-77
2022/01/20 12:14:11;;;;;;;41.03;21.65;;;;;;;4.26;100.00;98009.38;5054280;28;20033;-83
2022/01/20 12:16:37;;;;;;;37.60;22.75;;;;;;;4.07;100.00;98008.06;5050102;28;20037;-82
2022/01/20 12:19:08;;;;;;;33.80;21.65;;;;;;;4.18;100.00;97998.19;5050757;28;20025;-78
2022/01/20 12:21:34;;;;;;;35.70;20.60;;;;;;;4.34;100.00;97997.31;5048324;28;20037;-81
2022/01/20 12:24:00;;;;;;;39.90;22.27;;;;;;;4.04;100.00;97997.75;5049930;28;20057;-82
2022/01/20 12:26:26;;;;;;;38.65;21.67;;;;;;;4.18;100.00;98007.16;5049842;28;20052;-81
2022/01/20 12:29:10;;;;;;;40.67;22.08;;;;;;;4.53;100.00;98005.91;5050051;28;20116;-78